Thursday, January 18, 2018, 12:18 AM GMT
Back to Local

CWVQ, Ste Anne De Bell 1

Location: , , Canada Lat: 45.433
Local Time: 12:18 AM GMT ( 0:18 GMT) Lon: -73.933
Time Zone: GMT Elev: 127 ft

Show me the last for .
Show Decoded

2018-01-18 00:00 METAR CWVQ 180000Z AUTO 23011G17KT M06/M09 RMK AO1 SOG 23 6023 PK WND 21019/2349
                 SLP204 T10641092 =
2018-01-17 23:00 METAR CWVQ 172300Z AUTO 20005KT M07/M09 RMK AO1 SOG 22 8022 SLP208 T10701093 =
2018-01-17 22:00 METAR CWVQ 172200Z AUTO 22003KT M08/M09 RMK AO1 SOG 22 6023 SLP218 T10771092 =
2018-01-17 21:00 METAR CWVQ 172100Z AUTO 25004KT M08/M10 RMK AO1 SOG 22 6023 SLP227 T10781097 =
2018-01-17 20:00 METAR CWVQ 172000Z AUTO 25007KT M07/M10 RMK AO1 SOG 22 6032 SLP230 T10651096 =
2018-01-17 19:00 METAR CWVQ 171900Z AUTO 24005KT M08/M10 RMK AO1 SOG 22 6035 SLP241 T10771098 =
2018-01-17 18:00 METAR CWVQ 171800Z AUTO 25005KT M08/M10 RMK AO1 SOG 23 8033 SLP250 T10811102
                 50002 =
2018-01-17 17:00 METAR CWVQ 171700Z AUTO 19006KT M09/M11 RMK AO1 SOG 23 8023 SLP263 T10911111
                 50002 =
2018-01-17 16:00 METAR CWVQ 171600Z AUTO 18003KT M09/M11 RMK AO1 2PAST HR SOG 23 8010 SLP277
                 P0001 T10911107 50002 =
2018-01-17 15:00 METAR CWVQ 171500Z AUTO 19003KT M10/M11 RMK AO1 SOG 22 8002 SLP284 T11041113 =
2018-01-17 14:00 METAR CWVQ 171400Z AUTO 24002KT M11/M12 RMK AO1 SOG 21 6004 SLP286 T11111120 =
2018-01-17 13:00 METAR CWVQ 171300Z AUTO 20001KT M11/M12 RMK AO1 SOG 22 5002 SLP287 T11051124 =
2018-01-17 12:00 METAR CWVQ 171200Z AUTO 28001KT M12/M12 RMK AO1 SOG 22 8006 SLP286 T11151115
                 50002 =
2018-01-17 11:00 METAR CWVQ 171100Z AUTO 26003KT M11/M12 RMK AO1 SOG 22 5007 SLP290 T11051124
                 50002 =
2018-01-17 10:00 METAR CWVQ 171000Z AUTO 22002KT M12/M13 RMK AO1 SOG 22 8006 SLP289 T11211131
                 50002 =
2018-01-17 09:00 METAR CWVQ 170900Z AUTO 22001KT M12/M13 RMK AO1 SOG 22 0001 SLP292 T11211131
                 50002 =
2018-01-17 08:00 METAR CWVQ 170800Z AUTO 23002KT M11/M12 RMK AO1 SOG 22 5001 SLP297 T11131123
                 50002 =
2018-01-17 07:00 METAR CWVQ 170700Z AUTO 33002KT M12/M13 RMK AO1 2PAST HR SOG 22 5006 SLP295
                 P0001 T11161127 50002 =
2018-01-17 06:00 METAR CWVQ 170600Z AUTO 07002KT M12/M13 RMK AO1 SOG 22 8011 SLP291 T11181128 =
2018-01-17 05:00 METAR CWVQ 170500Z AUTO 32003KT M12/M13 RMK AO1 SOG 22 8004 SLP298 T11171127 =
2018-01-17 04:00 METAR CWVQ 170400Z AUTO 35001KT M12/M13 RMK AO1 SOG 23 6007 SLP301 T11221132 =
2018-01-17 03:00 METAR CWVQ 170300Z AUTO 00000KT M14/M15 RMK AO1 SOG 23 6008 SLP302 T11381150 =
2018-01-17 02:00 METAR CWVQ 170200Z AUTO 35002KT M12/M13 RMK AO1 SOG 22 8008 SLP302 T11191131 =
2018-01-17 01:00 METAR CWVQ 170100Z AUTO 02003KT M11/M12 RMK AO1 SOG 22 8001 SLP308 T11131115 =

Support USWX by starting your Amazon purchase here.